METAR Data
IDs: Format: Raw Decoded Include TAF

Data at: 1240 UTC 23 Sep 2018

KFTG 231230Z AUTO 22010G18KT 10SM CLR 16/M03 A3009 RMK AO2 T01631035
KFTG 231212Z AUTO 22012G17KT 10SM CLR 16/M04 A3009 RMK AO2 T01641037
KFTG 231148Z AUTO 21011KT 10SM CLR 17/M03 A3008 RMK AO2 T01651034
KFTG 231130Z AUTO 24011KT 10SM CLR 16/M03 A3008 RMK AO2 T01601030
KFTG 231112Z AUTO 25012G15KT 10SM CLR 16/M03 A3008 RMK AO2 T01561028
KFTG 231048Z AUTO 24012KT 10SM CLR 17/M03 A3008 RMK AO2 T01671030
KFTG 231030Z AUTO 25015KT 10SM CLR 17/M03 A3008 RMK AO2 T01681031
KFTG 231012Z AUTO 25015KT 10SM CLR 17/M03 A3008 RMK AO2 T01661029
KFTG 230948Z AUTO 24014KT 10SM CLR 16/M02 A3008 RMK AO2 T01621022
KFTG 230930Z AUTO 24013KT 10SM CLR 16/M02 A3008 RMK AO2 T01631020
KFTG 230912Z AUTO 24013KT 10SM CLR 17/M02 A3008 RMK AO2 T01651016
KFTG 230848Z AUTO 23013KT 10SM CLR 18/M01 A3008 RMK AO2 T01751015
KFTG 230830Z AUTO 23014KT 10SM CLR 17/00 A3008 RMK AO2 T01721005
KFTG 230812Z AUTO 24014KT 10SM CLR 18/00 A3008 RMK AO2 T01770001
KFTG 230748Z AUTO 23015KT 10SM CLR 18/01 A3008 RMK AO2 T01810006
KFTG 230730Z AUTO 21013KT 10SM CLR 18/01 A3009 RMK AO2 T01760012
KFTG 230712Z AUTO 19009KT 10SM CLR 18/02 A3008 RMK AO2 T01800019
KFTG 230648Z AUTO 19010KT 10SM CLR 17/01 A3008 RMK AO2 T01730014
KFTG 230630Z AUTO 19009KT 10SM CLR 17/01 A3009 RMK AO2 T01730012
KFTG 230612Z AUTO 20012KT 10SM CLR 17/01 A3009 RMK AO2 T01730010
KFTG 230548Z AUTO 19008KT 10SM CLR 18/01 A3010 RMK AO2 T01760007
KFTG 230530Z AUTO 18008KT 10SM CLR 19/01 A3010 RMK AO2 T01910005
KFTG 230512Z AUTO 18010KT 10SM CLR 18/00 A3010 RMK AO2 T01820002
KFTG 230448Z AUTO 18007KT 10SM CLR 16/00 A3010 RMK AO2 T01600001
KFTG 230430Z AUTO 16006KT 10SM CLR 16/01 A3010 RMK AO2 T01610005
KFTG 230412Z AUTO 16006KT 10SM CLR 18/00 A3010 RMK AO2 T01750003
KFTG 230348Z AUTO 16009KT 10SM CLR 18/01 A3010 RMK AO2 T01820009
KFTG 230330Z AUTO 16009KT 10SM CLR 20/00 A3011 RMK AO2 T01970002
KFTG 230312Z AUTO 15012KT 10SM CLR 21/00 A3011 RMK AO2 T02120000
KFTG 230247Z 14013KT 10SM FEW120 21/00 A3011
KFTG 230148Z 13010KT 10SM FEW120 20/M03 A3010
KFTG 230047Z 10008KT 10SM FEW120 24/M06 A3010
KFTG 222352Z 10006KT 10SM FEW120 29/M07 A3010
KFTG 222255Z 10005KT 10SM FEW120 29/M08 A3010
KFTG 222154Z 00000KT 10SM FEW120 29/M09 A3012
KFTG 221950Z 06004KT 10SM FEW120 29/M09 A3016
KFTG 221850Z 03005KT 10SM SKC 29/M07 A3019
KFTG 221758Z 00000KT 10SM SKC 28/M06 A3021
KFTG 221739Z 00000KT 10SM SKC 27/M05 A3022
KFTG 221647Z 25007KT 10SM SKC 25/M01 A3023
KFTG 221555Z 22012G15KT 10SM SKC 24/04 A3023
KFTG 221455Z 25005KT 10SM SKC 19/06 A3023
KFTG 221355Z 00000KT 10SM SKC 14/07 A3022
KFTG 221255Z AUTO 24009KT 10SM CLR 13/07 A3022 RMK AO2 T01310065
KFTG 221250Z 22009KT 10SM SKC 13/07 A3022
KFTG 221248Z AUTO 23009KT 10SM CLR 13/07 A3022 RMK AO2 T01300066
KFTG 221230Z AUTO 22007KT 10SM CLR 12/07 A3022 RMK AO2 T01230067
KFTG 221212Z AUTO 24006KT 10SM CLR 12/07 A3022 RMK AO2 T01220066
KFTG 221148Z AUTO 23009KT 10SM CLR 12/07 A3021 RMK AO2 T01190067
KFTG 221130Z AUTO 24007KT 10SM CLR 12/07 A3021 RMK AO2 T01200068
KFTG 221112Z AUTO 24007KT 10SM CLR 12/07 A3021 RMK AO2 T01220067
KFTG 221048Z AUTO 23008KT 10SM CLR 13/07 A3021 RMK AO2 T01290066
KFTG 221030Z AUTO 22007KT 10SM CLR 13/07 A3022 RMK AO2 T01270065
KFTG 221012Z AUTO 22009KT 10SM CLR 13/07 A3022 RMK AO2 T01300065
KFTG 220948Z AUTO 21010KT 10SM CLR 13/07 A3022 RMK AO2 T01300065
KFTG 220930Z AUTO 20009KT 10SM CLR 13/07 A3022 RMK AO2 T01300065
KFTG 220912Z AUTO 21009KT 10SM CLR 13/07 A3022 RMK AO2 T01290066
KFTG 220848Z AUTO 20006KT 10SM CLR 14/07 A3022 RMK AO2 T01370066
KFTG 220830Z AUTO 20007KT 10SM CLR 14/07 A3022 RMK AO2 T01410066
KFTG 220812Z AUTO 19007KT 10SM CLR 14/07 A3022 RMK AO2 T01440065
KFTG 220748Z AUTO 18008KT 10SM CLR 15/07 A3023 RMK AO2 T01490065
KFTG 220730Z AUTO 19010KT 10SM CLR 15/06 A3023 RMK AO2 T01520063
KFTG 220712Z AUTO 18011KT 10SM CLR 16/06 A3023 RMK AO2 T01550062
KFTG 220648Z AUTO 19013G17KT 10SM CLR 16/06 A3024 RMK AO2 T01580062
KFTG 220630Z AUTO 18013G21KT 10SM CLR 16/06 A3025 RMK AO2 T01620062
KFTG 220612Z AUTO 19017G22KT 10SM CLR 17/06 A3025 RMK AO2 T01650062
KFTG 220548Z AUTO 18017G25KT 10SM CLR 17/06 A3026 RMK AO2 T01670063
KFTG 220530Z AUTO 19015G20KT 10SM CLR 16/07 A3026 RMK AO2 T01620068
KFTG 220512Z AUTO 18009KT 10SM CLR 16/07 A3027 RMK AO2 T01600068
KFTG 220448Z AUTO 17008KT 10SM CLR 17/07 A3028 RMK AO2 T01650068
KFTG 220430Z AUTO 17008KT 10SM CLR 17/07 A3028 RMK AO2 T01690070
KFTG 220412Z AUTO 17012G16KT 10SM CLR 18/07 A3027 RMK AO2 T01750070
KFTG 220348Z AUTO 17014G19KT 10SM CLR 18/07 A3026 RMK AO2 T01810070
KFTG 220330Z AUTO 18016G22KT 10SM CLR 18/07 A3025 RMK AO2 T01830071
KFTG 220312Z AUTO 18013G17KT 10SM CLR 18/07 A3025 RMK AO2 T01830070
KFTG 220247Z 17012G18KT 10SM FEW080 19/07 A3025
KFTG 220150Z 17011KT 10SM FEW080 19/06 A3023
KFTG 220048Z 18010G17KT 10SM FEW100 SCT120 22/08 A3022